Terminal Aerodrome Forecast
Issued by NWS Paducah, KY

Home | Current Version | Previous Version | Text Only | Print | Product List | Glossary On
Versions: 1 2 3 4 5 6 7 8 9 10 11 12 13 14 15 16 17 18 19 20 21 22 23 24 25 26 27 28 29 30 31 32 33 34 35 36 37 38 39 40 41 42 43 44 45
000
FTUS43 KPAH 260731 AAO
TAFPAH
TAF AMD
KPAH 260731Z 2608/2706 36004KT P6SM SCT025 OVC035
     FM261500 36010KT P6SM OVC025
     FM262300 02011KT P6SM SCT010 OVC020
     FM270300 02012KT 5SM -SHRA BR SCT005 OVC010=

USA.gov is the U.S. government's official web portal to all federal, state and local government web resources and services.